Productos aeronáuticos

  • SIGMET
  • METAR / SPECI
  • TAF
  • AIREP
  • Aviso de aeródromo
  • Pronárea
  • Carta superficie
Fecha : 26/05/2017
FTUY 02 SUMU 26 05 30
SUMU TAF 260530Z 2606/2706 21012KT 5000 DZBR OVC008 TX17/2618Z TN13/2610Z BECMG 2611/2613 22010KT 9999 BKN012=
SULS TAF 260530Z 2606/2706 21012KT 5000 DZBR OVC008 TX17/2618Z TN13/2610Z BECMG 2611/2613 22010KT 9999 BKN012=
SUAA TAF 260530Z 2606/2706 21012KT 5000 DZBR OVC008 TX17/2618Z TN13/2610Z BECMG 2611/2613 22010KT 9999 BKN012=
SUCA TAF 260530Z 2606/2706 21012KT 5000 DZBR OVC008 TX17/2618Z TN13/2610Z BECMG 2611/2613 22010KT 9999 BKN012=
SUDU TAF 260530Z 2606/2706 21012KT 5000 DZBR OVC008 TX17/2618Z TN13/2610Z BECMG 2611/2613 22010KT 9999 BKN012=
SUSO TAF 260530Z 2606/2706 18008KT 9999 OVC008 TX20/2618Z TN16/2610Z TEMPO 2606/2618 3000 RADZBR OVC006=
SURV TAF 260530Z 2606/2706 18008KT 9999 OVC008 TX20/2618Z TN16/2610Z TEMPO 2606/2618 3000 RADZBR OVC006=

Predictor : Ramón Alvariño


Mensajes TAF vigentes - Internacionales


Argentina
TAF SAAR 260500Z 2606/2706 20005KT 7000 SCT008 BKN010 TX16/2618Z TN06/2706Z PROB40 2608/2610 2000 BR BECMG 2613/2616 20015KT 9999 SCT020
TAF SABE 260500Z 2606/2706 27005KT 9999 SCT008 OVC010 TX16/2618Z TN10/2706Z BECMG 2612/2615 9999 SCT020 SCT100 BECMG 2703/2705 11010KT
TAF SAEZ 260500Z 2606/2706 24005KT 5000 BR SCT025 TX16/2618Z TN09/2609Z PROB30 TEMPO 2608/2611 0900 BCFG SCT010 BECMG 2613/2615 22012KT SCT030 BECMG 2621/2623 17006KT CAVOK
TAF SAME 260500Z 2606/2706 18005KT CAVOK TX12/2620Z TN02/2610Z
TAF SACO 260500Z 2606/2706 VRB02KT 9999 BKN020 TX16/2618Z TN06/2610Z BECMG 2609/2613 20010KT 9999 SCT030
Bolivia
TAF SLLP 260410Z 2606/2706 07005KT 4000E VCFG FEW002 SCT010 BKN070 TX14/2620Z TN02/2610Z TEMPO 2607/2611 0500 FG BECMG 2613/2616 13008KT 9999 NSW SCT015 BKN070 TEMPO 2618/2621 33010KT 8000 SHRA SCT017 FEW020CB BKN070
Brasil
TAF SBBR 260400Z 2606/2706 00000KT CAVOK TN15/2608Z TX28/2618Z FM261400 10009KT CAVOK FM261700 12010KT 9999 SCT040 FM262300 13006KT CAVOK RMK PDF
TAF SBFI 260300Z 2606/2706 01004KT CAVOK TN22/2610Z TX31/2618Z PROB30 TEMPO 2616/2620 34008KT 9999 SCT030 BECMG 2703/2706 4000 TSRA BKN010 FEW035CB RMK PDN
TAF SBPA 260300Z 2606/2706 16008KT 7000 RA BKN007 BKN010 TX21/2606Z T N17/2706Z PROB30 TEMPO 2606/2609 36004KT 3000 TSRA FEW030CB PROB30 2609/ 2615 27004KT RMK PDN
TAF SBFL 260300Z 2606/2706 35008KT CAVOK TN20/2606Z TX29/2618Z BECMG 2700/2704 12004KT 9999 FEW020 RMK PDN
TAF SBRJ 260230Z 2606/2618 18005KT CAVOK TN20/2609Z TX27/2617Z PROB30 2608/2611 04005KT 4000 BR NSC BECMG 2612/2614 34005KT BECMG 2615/2617 17005KT FEW025 RMK PGY
TAF SBGR 260100Z 2606/2712 06005KT 4000 BR NSC TN16/2609Z TX28/2617Z PROB40 2609/2611 0400 FG OVC002 BECMG 2612/2615 35005KT CAVOK BECMG 2616/2618 34010KT 9999 FEW040 BECMG 2621/2623 07005KT CAVOK BECMG 2703/2705 02004KT 4000 BR NSC RMK PGH
TAF SBSP 260100Z 2606/2706 07005KT 4000 BR NSC TN17/2609Z TX28/2617Z PROB40 2609/2611 BKN003 BECMG 2612/2615 35005KT CAVOK BECMG 2616/2618 34010KT 9999 FEW040 BECMG 2621/2623 09005KT CAVOK BECMG 2703/2705 02004KT 4000 BR NSC RMK PGH
Colombia
TAF SKBO 260500Z 2606/2706 04004KT 9999 FEW020 SCT200 TEMPO 2606/2609 8000 VCFG -DZ SCT018TCU TEMPO 2609/2613 7000 VCFG VCSH SCT015 BECMG 2616/2618 14012KT PROB40 2618/2621 8000 VCSH SCT020TCU TX21/2618Z TN09/2611Z
Chile
TAF SCCI 260450Z 2606/2706 24017KT 9999 FEW040 TNM01/2612Z TX06/2618Z BECMG 2613/2615 28013KT SCT030 PROB30 TEMPO 2620/2700 8000 -SHRA -SHRASN SCT015 BKN030 TEMPO 2700/2706 31020G35KT
TAF SCEL 260400Z 2606/2706 16004KT 7000 BKN120 TX15/2619Z TN06/2611Z TEMPO 2606/2616 VRB02KT 4000 BR SCT015 BKN070 BECMG 2617/2619 18004KT 9999 SCT100 BKN180 BECMG 2620/2622 20008KT CAVOK BECMG 2701/2703 16004KT 8000 FEW150
Ecuador
SEQM 260430Z 2606/2706 00000KT 9999 FEW007 SCT020 TEMPO 2606/2609 6000 BCFG FM261200 VBR03KT 9999 SCT030 FM261800 34010KT 9999 BKN030 FM270000 04004KT 9999 FEW006 SCT030 TX23/2619Z TN10/2611Z
EEUU
KMIA 260859Z 2609/2706 00000KT P6SM FEW045 SCT060 BKN080 BKN250 FM261300 33005KT P6SM FEW030 FM261700 10010KT P6SM VCSH SCT035 FM270000 VRB03KT P6SM FEW030
KDCA 260851Z 2609/2706 25006KT P6SM SCT100 FM261000 24006KT P6SM BKN060 FM261300 26010G18KT P6SM BKN060 FM262000 30015G24KT P6SM BKN045 FM262300 30012KT P6SM SCT045 FM270300 31006KT P6SM SCT250
KIAD 260850Z 2609/2712 27004KT 5SM BR SCT100 FM261000 24005KT P6SM BKN060 FM261300 27010G19KT P6SM BKN060 FM261800 30016G24KT P6SM SCT045 FM262300 30011KT P6SM SCT045 FM270300 31005KT P6SM SCT250 FM270900 VRB03KT P6SM BKN110
KLGA 260801Z 2608/2706 33006KT 5SM -SHRA OVC012 FM260900 31007KT 5SM -SHRA OVC012 FM261100 29008KT P6SM -SHRA OVC012 FM261700 29010G18KT P6SM BKN035 FM262200 31010G16KT P6SM BKN035 FM270000 32009KT P6SM SCT035
KJFK 260801Z 2608/2712 32006KT 5SM -SHRA OVC008 FM260900 30008KT 5SM -SHRA OVC008 FM261200 28009KT P6SM -SHRA BKN008 FM261700 28011G19KT P6SM BKN035 FM262200 30010G16KT P6SM BKN035 FM262300 31010KT P6SM SCT035 FM271100 33007KT P6SM SCT050
España
TAF AMD LEMD 260803Z 2608/2712 VRB05KT CAVOK TX33/2615Z TN16/2705Z BECMG 2610/2612 20012KT TEMPO 2615/2624 20015G25KT SCT040TCU PROB40 TEMPO 2615/2624 VRB15G25KT TS SHRA SCT040CB TEMPO 2621/2706 VRB04KT
TAF LEBL 260500Z 2606/2706 07008KT 9999 FEW020 TX24/2612Z TN18/2606Z PROB30 TEMPO 2606/2608 0500 BCFG BKN005
Francia
TAF LFPO 260500Z 2606/2712 12008KT CAVOK
Inglaterra
TAF EGLL 260457Z 2606/2712 09008KT CAVOK PROB30 TEMPO 2707/2711 4000 +SHRA BKN045CB
Panamá
TAF COR MPTO 260400Z 2606/2712 00000KT 9999 SCT018 SCT090 PROB30 TEMPO 2618/2622 21006KT 6000 TSRA SCT016CB BKN090
Paraguay
TAF SGAS 260325Z 2606/2706 03006KT 9999 FEW033 TX31/2518Z TN23/2610Z PROB30 TEMPO 2607/2610 05009KT 7000 TSRA BKN020 FEW040CB BECMG 2612/2615 9999 BKN030 BECMG 2516/2519 21010G20KT 5000 TSRA OVC010 FEW040CB
Venezuela
TAF SVMI 260400Z 2606/2706 00000KT 9999 FEW016 TX34/18Z TN25/09Z TEMPO 2606/2610 CAVOK FM261100 00000KT 9999 FEW013

* Datos extraidos del Text DataServer de la NOAA (NOAA TEXT DATA SERVER)

Instituto Uruguayo de Meteorología

Dr. Javier Barrios Amorín 1488 - CP 11200
Mesa Central (598) 1895

Montevideo - Uruguay